Minneapolis, MN (55416)

7:36 PM CST on January 29, 2015 (GMT -0600)
Sunset Gables | Change Station
CLOSE
Current Station
Personal Weather Station
Location: Minneapolis, MN
Elevation: 892 ft
Nearby Weather Stations

Elev 892 ft 44.95 °N, 93.33 °W | Updated 49 seconds ago

Partly Cloudy
Partly Cloudy
20.6 °F
Feels Like 21 °F
N
3.0
Wind Variable Wind from NW
Gusts 9.0 mph

Today
High -- | Low -- °F
--% Chance of Precip.
Yesterday
High -- | Low -- °F
Precip. -- in
7:36 AM 5:16 PM
Waxing Gibbous, 78% visible
Pressure 30.48 in
Visibility 10.0 miles
Clouds Scattered Clouds 3400 ft
Windchill 21 °F
Dew Point 11 °F
Humidity 66%
Rainfall 0.00 in
Snow Depth Not available.
UV 0 out of 12
Pollen .10 out of 12
Air Quality Not available.
Flu Activity Not available.
METAR KMSP 300053Z 33015KT 10SM SCT034 M05/M12 A3044 RMK AO2 SLP321 T10501122

More Conditions Fewer Conditions

Pressure 30.48 in
Visibility 10.0 miles
Clouds Scattered Clouds 3400 ft
Windchill 21 °F
Dew Point 11 °F
Humidity 66%
Rainfall 0.00 in
Snow Depth Not available.
UV 0 out of 12
Pollen .10 out of 12
Air Quality Not available.
Flu Activity Not available.
METAR KMSP 300053Z 33015KT 10SM SCT034 M05/M12 A3044 RMK AO2 SLP321 T10501122

More Conditions Fewer Conditions

10-Day Weather Forecast

Almanac

Astronomy

Jan. 29, 2015 Rise Set
Actual Time
Civil Twilight
Nautical Twilight
Astronomical Twilight
Moon
Length of Visible Light
Length of Day
Tomorrow will be .
, % of the Moon is Illuminated

Today's Extremes

State Highs State Lows

Community

WunderPhotos

Upload Photos

1,791,668 photos uploaded!

WunderBlogs® & News

Nearby

Air Quality

  Air Quality AQ Index Pollutant
Not available.

Snow Depth

Station Depth Elevation

Earthquake Activity

City Distance Mag. Time & Date
Minimum magnitude displayed is 2.5.

Coastal Water Temperatures

Place Temperature

Nearby Weather Stations